Stations météo

réclame
Mon MeteoGroup
Apt, France (7657): Température de l'air & dewpoint: 12.02.2018 05:00:00 - 18.02.2018 05:00:00 (CET)Apt, France (7657): Vitesse du vent & gusts: 12.02.2018 05:00:00 - 18.02.2018 05:00:00 (CET)Apt, France (7657): Direction du vent: 12.02.2018 05:00:00 - 18.02.2018 05:00:00 (CET)Apt, France (7657): Quantités de précipitations: 12.02.2018 05:00:00 - 18.02.2018 05:00:00 (CET)
Date & Time tt [°C] td [°C] ff [km/h] ff [knt] fx [km/h] fx [knt] dd rr [mm]
18.02.2018 05:00:00 - - - - - - - -
18.02.2018 04:00:00 1,4 -1,5 29 16 48 26 NNW 0,0
18.02.2018 03:00:00 1,9 -1,0 26 14 44 24 NNW 0,0
18.02.2018 02:00:00 2,4 -0,5 13 7 35 19 WNW 0,0
18.02.2018 01:00:00 3,6 0,1 9 5 28 15 W -
18.02.2018 00:00:00 2,8 0,0 9 5 44 24 W 0,0
17.02.2018 23:00:00 2,5 0,6 13 7 26 14 NNW 0,0
17.02.2018 22:00:00 3,4 1,3 18 10 39 21 NW 0,0
17.02.2018 21:00:00 4,4 1,1 18 10 29 16 WNW 0,0
17.02.2018 20:00:00 4,8 0,7 15 8 35 19 WNW 0,0
17.02.2018 19:00:00 5,1 2,4 15 8 31 17 NW -
17.02.2018 18:00:00 6,3 3,6 9 5 26 14 WNW 0,0
17.02.2018 17:00:00 7,2 5,3 13 7 31 17 NNW 0,0
17.02.2018 16:00:00 7,3 6,9 8 4 16 9 NW 2,0
17.02.2018 15:00:00 6,7 6,3 0 0 8 4 N 0,8
17.02.2018 14:00:00 6,6 6,3 4 2 8 4 ESE 1,0
17.02.2018 13:00:00 6,4 6,1 5 3 15 8 ESE -
17.02.2018 12:00:00 6,3 6,0 9 5 15 8 SE 0,8
17.02.2018 11:00:00 5,9 5,8 5 3 13 7 ESE 2,0
17.02.2018 10:00:00 5,7 5,6 5 3 16 9 E 1,0
17.02.2018 09:00:00 5,6 5,5 8 4 22 12 SE 2,0
17.02.2018 08:00:00 5,5 5,4 15 8 29 16 SE 0,0
17.02.2018 07:00:00 5,9 5,8 13 7 22 12 SE -
17.02.2018 06:00:00 6,5 6,2 11 6 18 10 SE 0,2
17.02.2018 05:00:00 7,0 6,7 8 4 16 9 SSE 0,4
17.02.2018 04:00:00 7,2 6,8 11 6 18 10 SE 0,8
17.02.2018 03:00:00 7,7 6,8 8 4 18 10 SSE 0,0
17.02.2018 02:00:00 4,9 4,5 5 3 9 5 SSE 0,0
17.02.2018 01:00:00 3,7 2,8 2 1 4 2 S -
17.02.2018 00:00:00 3,4 2,1 0 0 9 5 N 0,0
16.02.2018 23:00:00 2,7 1,1 0 0 13 7 N 0,0
16.02.2018 22:00:00 3,2 1,1 2 1 9 5 SSE 0,0
16.02.2018 21:00:00 5,2 3,4 0 0 8 4 N 0,0
16.02.2018 20:00:00 7,3 4,8 4 2 13 7 W 0,0
16.02.2018 19:00:00 9,3 5,5 8 4 11 6 WNW -
16.02.2018 18:00:00 11,9 6,2 2 1 15 8 NW 0,0
16.02.2018 17:00:00 14,7 6,5 8 4 24 13 WNW 0,0
16.02.2018 16:00:00 15,5 6,0 13 7 29 16 NW 0,0
16.02.2018 15:00:00 14,7 5,7 21 11 34 18 NNW 0,0
16.02.2018 14:00:00 15,2 5,9 21 11 41 22 NNW 0,0
16.02.2018 13:00:00 15,1 7,1 16 9 37 20 NNW -
16.02.2018 12:00:00 14,2 6,8 22 12 35 19 NNW 0,0
16.02.2018 11:00:00 12,7 7,4 21 11 31 17 NNW 0,0
16.02.2018 10:00:00 11,1 6,8 13 7 22 12 WNW 0,0
16.02.2018 09:00:00 8,6 6,0 13 7 21 11 WNW 0,0
16.02.2018 08:00:00 6,5 4,3 15 8 21 11 WNW 0,0
16.02.2018 07:00:00 6,4 3,5 11 6 22 12 NW -
16.02.2018 06:00:00 5,2 3,2 9 5 18 10 NW 0,0
16.02.2018 05:00:00 4,4 2,4 11 6 21 11 NW 0,0
16.02.2018 04:00:00 3,8 1,8 9 5 16 9 NW 0,0
16.02.2018 03:00:00 4,8 2,8 13 7 16 9 WNW 0,0
16.02.2018 02:00:00 5,2 3,0 13 7 18 10 W 0,0
16.02.2018 01:00:00 4,7 3,2 13 7 18 10 WNW -
16.02.2018 00:00:00 4,7 3,4 13 7 21 11 WNW 0,0
15.02.2018 23:00:00 5,6 3,9 13 7 21 11 NW 0,0
15.02.2018 22:00:00 5,5 3,7 13 7 21 11 WNW 0,0
15.02.2018 21:00:00 6,1 4,1 15 8 18 10 W 0,0
15.02.2018 20:00:00 6,0 4,3 13 7 18 10 WNW 0,0
15.02.2018 19:00:00 6,6 3,9 11 6 16 9 WNW -
15.02.2018 18:00:00 8,9 5,1 9 5 18 10 NW 0,0
15.02.2018 17:00:00 10,3 5,5 13 7 28 15 NW 0,0
15.02.2018 16:00:00 10,4 5,8 18 10 41 22 NNW 0,0
15.02.2018 15:00:00 11,1 6,0 22 12 35 19 NNW 0,0
15.02.2018 14:00:00 11,1 6,4 18 10 29 16 NNW 0,0
15.02.2018 13:00:00 8,4 6,0 15 8 26 14 NNW -
15.02.2018 12:00:00 5,9 4,7 11 6 16 9 NNW 0,0
15.02.2018 11:00:00 5,1 4,1 11 6 16 9 NNW 0,0
15.02.2018 10:00:00 2,1 1,8 5 3 9 5 NNW 0,0
15.02.2018 09:00:00 0,8 0,4 8 4 9 5 NNW 0,0
15.02.2018 08:00:00 0,3 -0,1 5 3 9 5 SW 0,2
15.02.2018 07:00:00 0,1 -0,6 2 1 4 2 SW -
15.02.2018 06:00:00 0,0 -1,0 2 1 5 3 NW 0,0
15.02.2018 05:00:00 -0,3 -1,6 0 0 4 2 N 0,2
15.02.2018 04:00:00 -0,5 -2,1 0 0 4 2 N 0,0
15.02.2018 03:00:00 -1,2 -3,1 0 0 4 2 N 0,0
15.02.2018 02:00:00 -1,7 -3,4 0 0 4 2 N 0,0
15.02.2018 01:00:00 -2,7 -4,6 0 0 4 2 N -
15.02.2018 00:00:00 -3,3 -5,0 2 1 8 4 NNE 0,0
14.02.2018 23:00:00 -3,6 -5,3 2 1 5 3 WNW 0,0
14.02.2018 22:00:00 -3,8 -6,0 2 1 4 2 W 0,0
14.02.2018 21:00:00 -2,6 -5,1 2 1 9 5 NW 0,0
14.02.2018 20:00:00 -1,8 -5,0 8 4 9 5 W 0,0
14.02.2018 19:00:00 -0,9 -5,1 4 2 16 9 NW -
14.02.2018 18:00:00 2,3 -3,8 5 3 13 7 W 0,0
14.02.2018 17:00:00 4,8 -3,7 9 5 16 9 WNW 0,0
14.02.2018 16:00:00 6,3 -4,5 8 4 21 11 WNW 0,0
14.02.2018 15:00:00 6,3 -4,2 8 4 24 13 NW 0,0
14.02.2018 14:00:00 5,9 -4,6 11 6 26 14 NW 0,0
14.02.2018 13:00:00 4,8 -5,3 13 7 29 16 WNW -
14.02.2018 12:00:00 4,1 -4,6 13 7 29 16 NW 0,0
14.02.2018 11:00:00 2,6 -4,8 15 8 41 22 NW 0,0
14.02.2018 10:00:00 1,5 -4,6 18 10 35 19 N 0,0
14.02.2018 09:00:00 0,3 -4,9 16 9 37 20 NW 0,0
14.02.2018 08:00:00 -1,3 -5,7 26 14 39 21 NNW 0,0
14.02.2018 07:00:00 -0,9 -5,0 24 13 46 25 NNW -
14.02.2018 06:00:00 -0,5 -4,6 28 15 48 26 NW 0,0
14.02.2018 05:00:00 -1,6 -4,4 15 8 35 19 NNW 0,0
14.02.2018 04:00:00 -1,6 -4,4 21 11 39 21 NW 0,0
14.02.2018 03:00:00 -3,5 -5,2 8 4 16 9 WNW 0,0
14.02.2018 02:00:00 -3,2 -5,2 9 5 16 9 NNW 0,0
14.02.2018 01:00:00 -2,5 -6,2 4 2 13 7 NNW -
14.02.2018 00:00:00 -1,9 -6,3 11 6 24 13 W 0,0
13.02.2018 23:00:00 -1,7 -7,6 4 2 5 3 W 0,0
13.02.2018 22:00:00 -1,8 -8,1 4 2 5 3 W 0,0
13.02.2018 21:00:00 -1,7 -8,5 4 2 26 14 NNW 0,0
13.02.2018 20:00:00 -0,7 -9,9 9 5 22 12 W 0,0
13.02.2018 19:00:00 -0,1 -7,8 9 5 16 9 NNW -
13.02.2018 18:00:00 0,6 -9,2 5 3 22 12 NW 0,0
13.02.2018 17:00:00 1,4 -9,3 15 8 24 13 SW 0,0
13.02.2018 16:00:00 2,8 -9,5 15 8 24 13 SW 0,0
13.02.2018 15:00:00 4,9 -10,1 9 5 26 14 SSE 0,0
13.02.2018 14:00:00 4,1 -10,4 11 6 26 14 S 0,0
13.02.2018 13:00:00 4,1 -9,3 15 8 31 17 SE -
13.02.2018 12:00:00 3,9 -8,8 13 7 29 16 SE 0,0
13.02.2018 11:00:00 3,1 -9,9 8 4 22 12 SSE 0,0
13.02.2018 10:00:00 0,9 -12,2 4 2 8 4 E 0,0
13.02.2018 09:00:00 -1,1 -11,0 2 1 18 10 WNW 0,0
13.02.2018 08:00:00 -5,8 -13,0 13 7 21 11 W 0,0
13.02.2018 07:00:00 -5,3 -13,2 13 7 22 12 W -
13.02.2018 06:00:00 -4,5 -12,7 16 9 24 13 WNW 0,0
13.02.2018 05:00:00 -3,4 -13,1 15 8 28 15 NW 0,0
13.02.2018 04:00:00 -3,6 -12,5 13 7 29 16 NW 0,0
13.02.2018 03:00:00 -3,6 -12,3 16 9 29 16 NW 0,0
13.02.2018 02:00:00 -3,6 -11,8 16 9 29 16 NW 0,0
13.02.2018 01:00:00 -3,0 -11,7 18 10 34 18 NW -
13.02.2018 00:00:00 -2,8 -12,0 16 9 26 14 NW 0,0
12.02.2018 23:00:00 -3,2 -12,2 8 4 37 20 NW 0,0
12.02.2018 22:00:00 -2,2 -11,0 21 11 41 22 NNW 0,0
12.02.2018 21:00:00 -2,0 -10,6 29 16 55 30 NNW 0,0
12.02.2018 20:00:00 -1,5 -10,3 29 16 55 30 NNW 0,0
12.02.2018 19:00:00 -1,3 -10,2 13 7 61 33 W -
12.02.2018 18:00:00 -0,6 -9,8 31 17 54 29 NW 0,0
12.02.2018 17:00:00 1,2 -10,3 31 17 67 36 NNW 0,0
12.02.2018 16:00:00 2,3 -9,9 41 22 67 36 NNW 0,0
12.02.2018 15:00:00 2,5 -9,8 39 21 68 37 NNW 0,0
12.02.2018 14:00:00 2,6 -9,4 34 18 59 32 NW 0,0
12.02.2018 13:00:00 2,5 -7,7 29 16 59 32 NW -
12.02.2018 12:00:00 2,1 -7,8 35 19 65 35 NNW 0,0
12.02.2018 11:00:00 1,8 -7,3 37 20 61 33 NNW 0,0
12.02.2018 10:00:00 0,7 -5,3 29 16 55 30 NNW 0,0
12.02.2018 09:00:00 0,5 -5,9 35 19 55 30 NNW 0,0
12.02.2018 08:00:00 -0,6 -5,8 16 9 42 23 WNW 0,0
12.02.2018 07:00:00 -0,4 -5,4 22 12 41 22 NNW -
12.02.2018 06:00:00 -0,1 -4,4 21 11 48 26 NNW 0,0
12.02.2018 05:00:00 1,0 -4,1 24 13 37 20 NW 0,0

tt = Température de l'air
td = dewpoint
ff = Vitesse du vent
fx = gusts
dd = Direction du vent
rr = Quantités de précipitations

stations d'obs. à proximité